Time;durP1;ratioP1;P1;durP2;ratioP2;P2;SDS_P1;SDS_P2;PMS_P1;PMS_P2;Temp;Humidity;BMP_temperature;BMP_pressure;BME280_temperature;BME280_humidity;BME280_pressure;Samples;Min_cycle;Max_cycle;Signal;HPM_P1;HPM_P2
2022/09/22 00:01:51;;;;;;;4.50;3.90;;;8.00;99.90;;;;;;5042487;28;20193;-66
2022/09/22 00:04:17;;;;;;;4.43;4.03;;;8.00;99.90;;;;;;5044155;28;20266;-64
2022/09/22 00:06:46;;;;;;;5.20;3.40;;;8.00;99.90;;;;;;5040767;28;20186;-67
2022/09/22 00:09:14;;;;;;;4.32;3.55;;;8.00;99.90;;;;;;5039697;28;20429;-66
2022/09/22 00:11:50;;;;;;;3.50;3.20;;;8.00;99.90;;;;;;5036930;28;20181;-66
2022/09/22 00:14:22;;;;;;;4.55;3.28;;;7.90;99.90;;;;;;5045975;28;20198;-66
2022/09/22 00:16:50;;;;;;;4.13;3.60;;;8.00;99.90;;;;;;5046181;28;20701;-66
2022/09/22 00:19:17;;;;;;;3.60;3.30;;;7.70;99.90;;;;;;5048443;28;20177;-66
2022/09/22 00:21:45;;;;;;;4.30;3.90;;;7.90;99.90;;;;;;5043653;28;20269;-67
2022/09/22 00:24:11;;;;;;;4.80;4.30;;;7.80;99.90;;;;;;5050932;28;20279;-66
2022/09/22 00:26:37;;;;;;;3.80;3.50;;;7.90;99.90;;;;;;5049608;28;20224;-66
2022/09/22 00:29:08;;;;;;;5.40;4.25;;;7.50;99.90;;;;;;5044229;28;20527;-66
2022/09/22 00:31:35;;;;;;;4.63;3.78;;;7.90;99.90;;;;;;5048105;28;20185;-64
2022/09/22 00:34:01;;;;;;;3.55;3.30;;;7.80;99.90;;;;;;5051728;28;20178;-64
2022/09/22 00:36:27;;;;;;;4.30;3.70;;;7.90;99.90;;;;;;5049259;28;20558;-66
2022/09/22 00:38:55;;;;;;;4.10;3.70;;;7.80;99.90;;;;;;5050500;28;20208;-66
2022/09/22 00:41:26;;;;;;;4.72;3.58;;;7.70;99.90;;;;;;5048461;28;20470;-66
2022/09/22 00:44:20;;;;;;;3.65;3.35;;;7.50;99.90;;;;;;5049421;28;20639;-64
2022/09/22 00:46:57;;;;;;;4.43;4.03;;;7.50;99.90;;;;;;5050473;28;20257;-66
2022/09/22 00:49:51;;;;;;;3.38;3.17;;;7.40;99.90;;;;;;5050741;28;20216;-66
2022/09/22 00:52:42;;;;;;;4.03;3.72;;;7.60;99.90;;;;;;5050825;28;20185;-63
2022/09/22 00:55:13;;;;;;;3.50;3.20;;;7.60;99.90;;;;;;5032979;28;20202;-66
2022/09/22 00:57:43;;;;;;;3.75;3.45;;;7.80;99.90;;;;;;5043217;28;20190;-63
2022/09/22 01:00:10;;;;;;;7.47;4.07;;;6.90;99.90;;;;;;5041383;28;20272;-68
2022/09/22 01:02:36;;;;;;;5.00;4.07;;;7.60;99.90;;;;;;5041113;28;20198;-66
2022/09/22 01:05:03;;;;;;;3.90;3.58;;;7.70;99.90;;;;;;5047266;28;20295;-66
2022/09/22 01:07:30;;;;;;;4.25;3.85;;;7.60;99.90;;;;;;5040871;28;20214;-66
2022/09/22 01:09:56;;;;;;;5.45;5.05;;;7.80;99.90;;;;;;5046207;28;20185;-66
2022/09/22 01:12:23;;;;;;;4.13;3.72;;;7.70;99.90;;;;;;5047936;28;20182;-66
2022/09/22 01:15:04;;;;;;;4.43;3.80;;;7.90;99.90;;;;;;5046581;28;20237;-66
2022/09/22 01:17:48;;;;;;;3.92;3.53;;;7.50;99.90;;;;;;5040894;28;20189;-66
2022/09/22 01:20:32;;;;;;;4.00;3.70;;;7.30;99.90;;;;;;5038889;28;20186;-66
2022/09/22 01:23:16;;;;;;;4.07;3.78;;;7.70;99.90;;;;;;5047286;28;20189;-66
2022/09/22 01:26:29;;;;;;;4.93;4.32;;;7.40;99.90;;;;;;5049017;28;20205;-66
2022/09/22 01:29:00;;;;;;;4.47;3.78;;;7.50;99.90;;;;;;5035290;28;20254;-66
2022/09/22 01:31:49;;;;;;;4.13;3.83;;;7.00;99.90;;;;;;5050033;28;20181;-66
2022/09/22 01:34:33;;;;;;;3.50;3.20;;;7.20;99.90;;;;;;5047396;28;20205;-66
2022/09/22 01:37:05;;;;;;;4.15;3.75;;;7.30;99.90;;;;;;5047152;28;20676;-63
2022/09/22 01:39:37;;;;;;;5.72;3.63;;;7.30;99.90;;;;;;5037927;28;20213;-68
2022/09/22 01:42:17;;;;;;;4.20;3.70;;;7.50;99.90;;;;;;5044335;28;20243;-66
2022/09/22 01:44:46;;;;;;;3.80;3.50;;;7.40;99.90;;;;;;5049175;28;20254;-66
2022/09/22 01:47:35;;;;;;;3.83;3.53;;;7.40;99.90;;;;;;5050815;28;20204;-66
2022/09/22 01:50:08;;;;;;;5.43;3.60;;;6.70;99.90;;;;;;5045902;28;20247;-66
2022/09/22 01:52:35;;;;;;;3.95;3.40;;;7.10;99.90;;;;;;5043005;28;20634;-63
2022/09/22 01:55:10;;;;;;;4.22;3.83;;;7.10;99.90;;;;;;5045593;28;20229;-63
2022/09/22 01:57:47;;;;;;;3.95;3.60;;;7.10;99.90;;;;;;5038674;28;20280;-66
2022/09/22 02:00:14;;;;;;;4.35;3.92;;;7.30;99.90;;;;;;5050254;28;20300;-64
2022/09/22 02:02:52;;;;;;;5.50;4.20;;;7.20;99.90;;;;;;5049237;28;20189;-64
2022/09/22 02:05:29;;;;;;;4.35;3.95;;;7.20;99.90;;;;;;5043316;28;20197;-63
2022/09/22 02:07:56;;;;;;;4.35;4.03;;;7.20;99.90;;;;;;5046263;28;20267;-66
2022/09/22 02:10:30;;;;;;;3.72;3.05;;;6.90;99.90;;;;;;5049703;28;20276;-65
2022/09/22 02:12:56;;;;;;;4.18;3.83;;;7.00;99.90;;;;;;5049565;28;20326;-65
2022/09/22 02:18:12;;;;;;;4.35;3.95;;;7.20;99.90;;;;;;5046053;28;20251;-65
2022/09/22 02:20:39;;;;;;;6.30;4.10;;;7.30;99.90;;;;;;5044763;28;20205;-66
2022/09/22 02:23:05;;;;;;;3.75;3.45;;;7.10;99.90;;;;;;5042201;28;20190;-66
2022/09/22 02:25:31;;;;;;;4.23;3.77;;;7.20;99.90;;;;;;5048707;28;20893;-66
2022/09/22 02:27:57;;;;;;;3.70;3.40;;;7.10;99.90;;;;;;5050398;28;20321;-66
2022/09/22 02:30:23;;;;;;;4.20;3.80;;;6.90;99.90;;;;;;5042072;28;20627;-66
2022/09/22 02:32:52;;;;;;;5.25;3.85;;;7.00;99.90;;;;;;5050696;28;20224;-66
2022/09/22 02:35:19;;;;;;;4.43;4.05;;;7.00;99.90;;;;;;5049344;28;20197;-65
2022/09/22 02:37:50;;;;;;;5.43;4.80;;;6.60;99.90;;;;;;5048079;28;20193;-66
2022/09/22 02:40:29;;;;;;;4.47;4.07;;;7.00;99.90;;;;;;5048523;28;20189;-67
2022/09/22 02:43:03;;;;;;;3.80;3.50;;;6.70;99.90;;;;;;5047203;28;20205;-66
2022/09/22 02:45:37;;;;;;;6.13;3.85;;;6.70;99.90;;;;;;5044373;28;20241;-66
2022/09/22 02:48:16;;;;;;;4.80;4.05;;;6.80;99.90;;;;;;5043732;28;20228;-65
2022/09/22 02:50:42;;;;;;;7.30;5.30;;;6.90;99.90;;;;;;5044320;28;20186;-65
2022/09/22 02:53:14;;;;;;;4.47;4.07;;;7.00;99.90;;;;;;5048022;28;20216;-65
2022/09/22 02:55:41;;;;;;;3.90;3.55;;;6.80;99.90;;;;;;5044276;28;20240;-65
2022/09/22 02:58:07;;;;;;;4.47;3.90;;;6.70;99.90;;;;;;5041789;28;20197;-64
2022/09/22 03:00:32;;;;;;;4.30;3.90;;;6.80;99.90;;;;;;5041810;28;20185;-64
2022/09/22 03:02:59;;;;;;;5.47;4.47;;;6.80;99.90;;;;;;5038437;28;20479;-65
2022/09/22 03:05:25;;;;;;;6.32;3.90;;;6.90;99.90;;;;;;5043404;28;20879;-65
2022/09/22 03:07:50;;;;;;;4.27;3.87;;;6.40;99.90;;;;;;5041580;28;20220;-65
2022/09/22 03:10:16;;;;;;;3.83;3.43;;;6.80;99.90;;;;;;5042784;28;20436;-66
2022/09/22 03:12:42;;;;;;;4.17;3.63;;;6.60;99.90;;;;;;5040386;28;20185;-65
2022/09/22 03:15:13;;;;;;;5.05;3.83;;;6.90;99.90;;;;;;5038454;28;20452;-65
2022/09/22 03:17:40;;;;;;;3.58;3.22;;;6.70;99.90;;;;;;5033968;28;20601;-65
2022/09/22 03:20:09;;;;;;;3.53;3.22;;;6.70;99.90;;;;;;5039728;28;20186;-66
2022/09/22 03:22:34;;;;;;;3.80;3.50;;;6.70;99.90;;;;;;5044184;28;20222;-65
2022/09/22 03:25:00;;;;;;;4.30;3.90;;;6.70;99.90;;;;;;5045462;28;20247;-66
2022/09/22 03:27:26;;;;;;;6.30;3.77;;;6.70;99.90;;;;;;5045549;28;20296;-65
2022/09/22 03:29:52;;;;;;;5.63;3.90;;;6.70;99.90;;;;;;5044092;28;20463;-65
2022/09/22 03:32:18;;;;;;;4.60;3.53;;;6.50;99.90;;;;;;5040466;28;20638;-65
2022/09/22 03:34:43;;;;;;;3.80;3.50;;;6.60;99.90;;;;;;5040155;28;20206;-66
2022/09/22 03:37:09;;;;;;;5.27;4.03;;;6.50;99.90;;;;;;5041108;28;20286;-65
2022/09/22 03:39:34;;;;;;;5.23;4.07;;;6.50;99.90;;;;;;5045570;28;20205;-67
2022/09/22 03:42:00;;;;;;;4.07;3.77;;;6.50;99.90;;;;;;5036955;28;20744;-65
2022/09/22 03:44:26;;;;;;;4.40;4.03;;;6.50;99.90;;;;;;5046272;28;20209;-65
2022/09/22 03:46:52;;;;;;;7.70;3.87;;;6.00;99.90;;;;;;5042379;28;20232;-65
2022/09/22 03:49:17;;;;;;;4.25;3.78;;;7.00;99.90;;;;;;5039013;28;20185;-65
2022/09/22 03:51:43;;;;;;;5.80;4.10;;;6.40;99.90;;;;;;5032031;28;20195;-65
2022/09/22 03:54:08;;;;;;;4.73;4.33;;;6.60;99.90;;;;;;5050083;28;21035;-65
2022/09/22 03:56:34;;;;;;;4.33;3.93;;;6.50;99.90;;;;;;5042103;28;20193;-65
2022/09/22 03:59:00;;;;;;;4.40;3.93;;;6.50;99.90;;;;;;5042119;28;20198;-66
2022/09/22 04:01:25;;;;;;;4.10;3.80;;;6.40;99.90;;;;;;5039908;28;20589;-65
2022/09/22 04:03:51;;;;;;;4.30;3.90;;;6.70;99.90;;;;;;5043562;28;20190;-64
2022/09/22 04:06:17;;;;;;;4.03;3.70;;;6.40;99.90;;;;;;5041389;28;20181;-65
2022/09/22 04:08:43;;;;;;;4.73;4.17;;;6.60;99.90;;;;;;5043583;28;20468;-65
2022/09/22 04:11:08;;;;;;;4.60;4.20;;;6.70;99.90;;;;;;5038029;28;20185;-65
2022/09/22 04:13:34;;;;;;;3.80;3.50;;;6.50;99.90;;;;;;5046501;28;20189;-66
2022/09/22 04:16:01;;;;;;;4.30;3.90;;;6.50;99.90;;;;;;5041582;28;20205;-66
2022/09/22 04:18:28;;;;;;;5.00;4.05;;;6.60;99.90;;;;;;5042945;28;20191;-66
2022/09/22 04:20:57;;;;;;;4.40;4.00;;;6.40;99.90;;;;;;5046121;28;20185;-66
2022/09/22 04:23:24;;;;;;;4.35;3.75;;;6.40;99.90;;;;;;5050224;28;20334;-66
2022/09/22 04:25:51;;;;;;;4.50;4.10;;;6.40;99.90;;;;;;5039944;28;20214;-66
2022/09/22 04:28:17;;;;;;;3.72;3.35;;;5.80;99.90;;;;;;5040564;28;20263;-66
2022/09/22 04:30:42;;;;;;;3.75;3.45;;;5.70;99.90;;;;;;5044594;28;20590;-66
2022/09/22 04:33:09;;;;;;;5.43;4.27;;;6.20;99.90;;;;;;5043109;28;20182;-65
2022/09/22 04:35:36;;;;;;;5.07;4.50;;;6.20;99.90;;;;;;5045392;28;20251;-65
2022/09/22 04:38:01;;;;;;;4.35;3.95;;;6.10;99.90;;;;;;5041655;28;20200;-65
2022/09/22 04:40:27;;;;;;;4.20;3.80;;;5.80;99.90;;;;;;5032671;28;20285;-65
2022/09/22 04:42:53;;;;;;;4.07;3.20;;;6.10;99.90;;;;;;5039892;28;20455;-65
2022/09/22 04:45:19;;;;;;;5.63;4.27;;;6.20;99.90;;;;;;5040135;28;20461;-65
2022/09/22 04:47:50;;;;;;;4.32;3.72;;;6.10;99.90;;;;;;5043018;28;20202;-65
2022/09/22 04:50:17;;;;;;;4.45;4.05;;;5.70;99.90;;;;;;5038421;28;20264;-65
2022/09/22 04:52:51;;;;;;;3.75;3.45;;;6.30;99.90;;;;;;5039931;28;20188;-64
2022/09/22 04:55:17;;;;;;;3.88;3.58;;;6.20;99.90;;;;;;5038868;28;20336;-65
2022/09/22 04:57:55;;;;;;;5.60;4.03;;;6.40;99.90;;;;;;5043372;28;20186;-67
2022/09/22 05:00:22;;;;;;;4.38;3.97;;;6.50;99.90;;;;;;5040225;28;20280;-65
2022/09/22 05:02:49;;;;;;;4.30;3.92;;;5.90;99.90;;;;;;5045694;28;20204;-64
2022/09/22 05:05:15;;;;;;;6.20;4.13;;;6.40;99.90;;;;;;5048798;28;20776;-65
2022/09/22 05:07:42;;;;;;;6.03;3.83;;;6.60;99.90;;;;;;5045753;28;20217;-66
2022/09/22 05:10:10;;;;;;;5.10;4.20;;;6.40;99.90;;;;;;5040538;28;20189;-65
2022/09/22 05:12:38;;;;;;;4.38;3.97;;;6.40;99.90;;;;;;5047807;28;20550;-65
2022/09/22 05:15:04;;;;;;;3.70;3.10;;;6.50;99.90;;;;;;5046188;28;20243;-66
2022/09/22 05:17:30;;;;;;;4.35;3.92;;;6.50;99.90;;;;;;5046224;28;20185;-65
2022/09/22 05:19:56;;;;;;;4.00;3.70;;;6.40;99.90;;;;;;5041757;28;20871;-65
2022/09/22 05:22:21;;;;;;;5.47;4.93;;;6.50;99.90;;;;;;5047112;28;20185;-65
2022/09/22 05:24:47;;;;;;;7.83;3.70;;;6.50;99.90;;;;;;5047854;28;20266;-65
2022/09/22 05:27:13;;;;;;;7.03;4.07;;;6.50;99.90;;;;;;5042048;28;20583;-64
2022/09/22 05:29:39;;;;;;;4.32;3.53;;;6.30;99.90;;;;;;5034027;28;20185;-64
2022/09/22 05:32:05;;;;;;;7.50;4.30;;;6.90;99.90;;;;;;5044401;28;20574;-68
2022/09/22 05:34:31;;;;;;;4.30;3.90;;;6.00;99.90;;;;;;5046145;28;20215;-64
2022/09/22 05:36:56;;;;;;;5.63;4.40;;;6.20;99.90;;;;;;5038656;28;20863;-67
2022/09/22 05:39:22;;;;;;;4.33;3.93;;;6.40;99.90;;;;;;5046006;28;20212;-64
2022/09/22 05:41:50;;;;;;;5.97;4.37;;;6.20;99.90;;;;;;5047425;28;20673;-62
2022/09/22 05:44:16;;;;;;;5.97;4.13;;;5.90;99.90;;;;;;5043512;28;20204;-63
2022/09/22 05:46:41;;;;;;;5.37;4.73;;;6.40;99.90;;;;;;5044143;28;20718;-63
2022/09/22 05:49:07;;;;;;;13.40;5.43;;;6.50;99.90;;;;;;5047457;28;20790;-62
2022/09/22 05:51:32;;;;;;;4.30;3.93;;;6.30;99.90;;;;;;5040113;28;20195;-62
2022/09/22 05:53:58;;;;;;;6.10;5.13;;;6.80;99.90;;;;;;5047901;28;20190;-64
2022/09/22 05:56:23;;;;;;;5.50;4.80;;;6.50;99.90;;;;;;5044395;28;20562;-67
2022/09/22 05:58:49;;;;;;;5.37;4.87;;;7.00;99.90;;;;;;5040033;28;20450;-67
2022/09/22 06:01:15;;;;;;;6.93;5.03;;;6.40;99.90;;;;;;5038892;28;20190;-67
2022/09/22 06:03:40;;;;;;;6.77;4.47;;;7.20;99.90;;;;;;5046515;28;22815;-66
2022/09/22 06:06:06;;;;;;;5.43;4.93;;;6.90;99.90;;;;;;5045718;28;20623;-73
2022/09/22 06:08:32;;;;;;;11.93;5.73;;;6.70;99.90;;;;;;5045211;28;20209;-72
2022/09/22 06:10:57;;;;;;;6.10;4.80;;;6.90;99.90;;;;;;5046092;28;20633;-72
2022/09/22 06:13:23;;;;;;;5.03;4.60;;;7.10;99.90;;;;;;5045556;28;20192;-69
2022/09/22 06:15:49;;;;;;;7.87;5.50;;;6.90;99.90;;;;;;5042496;28;20325;-67
2022/09/22 06:18:16;;;;;;;7.30;5.00;;;7.00;99.90;;;;;;5047606;28;20221;-67
2022/09/22 06:20:43;;;;;;;8.85;8.00;;;7.20;99.90;;;;;;5047903;28;20455;-68
2022/09/22 06:23:10;;;;;;;5.60;5.10;;;7.00;99.90;;;;;;5038358;28;20197;-67
2022/09/22 06:25:36;;;;;;;6.40;4.88;;;7.20;99.90;;;;;;5046163;28;20220;-63
2022/09/22 06:28:05;;;;;;;6.13;5.07;;;7.30;99.90;;;;;;5034168;28;20568;-63
2022/09/22 06:30:32;;;;;;;5.85;5.25;;;6.90;99.90;;;;;;5036388;28;20683;-62
2022/09/22 06:32:58;;;;;;;5.50;4.70;;;7.20;99.90;;;;;;5040813;28;20181;-63
2022/09/22 06:35:24;;;;;;;6.80;5.03;;;7.00;99.90;;;;;;5041213;28;20195;-63
2022/09/22 06:37:57;;;;;;;5.30;4.80;;;7.60;99.90;;;;;;5035577;28;20441;-63
2022/09/22 06:40:24;;;;;;;5.25;4.75;;;7.40;99.90;;;;;;5046258;28;20209;-67
2022/09/22 06:42:56;;;;;;;7.28;5.32;;;7.80;99.90;;;;;;5043251;28;20198;-64
2022/09/22 06:45:22;;;;;;;5.95;5.10;;;7.80;99.90;;;;;;5034003;28;20627;-70
2022/09/22 06:47:47;;;;;;;7.70;4.97;;;8.00;99.90;;;;;;5042762;28;20689;-68
2022/09/22 06:50:14;;;;;;;4.87;4.30;;;7.70;99.90;;;;;;5042730;28;20190;-67
2022/09/22 06:52:39;;;;;;;6.13;4.90;;;8.30;99.90;;;;;;5046179;28;20295;-69
2022/09/22 06:55:05;;;;;;;5.53;5.03;;;8.40;99.90;;;;;;5048189;28;20217;-69
2022/09/22 06:57:31;;;;;;;7.10;5.00;;;9.30;99.90;;;;;;5042780;28;20214;-69
2022/09/22 07:00:01;;;;;;;6.75;4.47;;;10.30;99.90;;;;;;5043038;28;20813;-63
2022/09/22 07:02:28;;;;;;;5.10;4.60;;;11.60;99.90;;;;;;5047647;28;20189;-70
2022/09/22 07:04:57;;;;;;;5.20;4.70;;;12.90;99.90;;;;;;5047309;28;20198;-64
2022/09/22 07:07:26;;;;;;;7.82;7.05;;;14.60;96.90;;;;;;5031359;28;20198;-63
2022/09/22 07:09:51;;;;;;;4.95;4.45;;;15.00;93.30;;;;;;5047924;28;20256;-64
2022/09/22 07:12:18;;;;;;;5.82;4.75;;;15.50;91.70;;;;;;5048002;28;20228;-63
2022/09/22 07:14:47;;;;;;;4.38;3.97;;;15.40;91.10;;;;;;5043179;28;20697;-63
2022/09/22 07:17:15;;;;;;;5.20;4.60;;;18.10;87.00;;;;;;5037565;28;20194;-64
2022/09/22 07:19:40;;;;;;;5.35;4.63;;;17.90;81.70;;;;;;5038762;28;20201;-64
2022/09/22 07:22:06;;;;;;;4.43;4.03;;;20.00;79.80;;;;;;5048617;28;20188;-64
2022/09/22 07:24:32;;;;;;;4.63;4.23;;;22.10;72.20;;;;;;5041657;28;20221;-65
2022/09/22 07:27:03;;;;;;;5.10;4.70;;;24.00;64.20;;;;;;5046891;28;20451;-69
2022/09/22 07:29:29;;;;;;;4.97;4.57;;;25.60;58.10;;;;;;5036653;28;20960;-69
2022/09/22 07:31:58;;;;;;;4.50;4.10;;;26.20;55.60;;;;;;5046320;28;20441;-70
2022/09/22 07:34:25;;;;;;;5.70;4.63;;;27.60;52.30;;;;;;5054914;22;20574;-64
2022/09/22 07:36:51;;;;;;;6.50;5.50;;;27.80;51.00;;;;;;5037245;28;20449;-72
2022/09/22 07:39:16;;;;;;;5.23;4.73;;;28.90;48.20;;;;;;5027317;28;20527;-73
2022/09/22 07:41:42;;;;;;;4.90;4.50;;;29.20;45.90;;;;;;5032045;28;21039;-74
2022/09/22 07:46:54;;;;;;;4.70;4.30;;;29.60;44.10;;;;;;5029222;28;20320;-73
2022/09/22 07:49:21;;;;;;;4.97;4.20;;;30.40;43.30;;;;;;5033045;28;20941;-74
2022/09/22 07:51:53;;;;;;;4.80;4.40;;;31.40;41.90;;;;;;5031007;28;20189;-73
2022/09/22 07:54:20;;;;;;;8.37;5.90;;;31.40;40.30;;;;;;5035308;28;20861;-70
2022/09/22 07:56:45;;;;;;;5.00;4.70;;;29.00;41.70;;;;;;5023701;28;20902;-69
2022/09/22 07:59:13;;;;;;;9.97;6.33;;;27.20;42.20;;;;;;5033093;28;20461;-67
2022/09/22 08:01:46;;;;;;;7.47;5.70;;;27.90;45.20;;;;;;5042848;28;20209;-59
2022/09/22 08:04:17;;;;;;;7.03;5.97;;;28.50;42.10;;;;;;5015856;28;20464;-66
2022/09/22 08:06:44;;;;;;;5.87;5.37;;;27.80;43.30;;;;;;5041891;28;20444;-65
2022/09/22 08:09:10;;;;;;;7.27;6.57;;;26.60;45.90;;;;;;5025334;28;20479;-64
2022/09/22 08:11:37;;;;;;;7.83;7.00;;;24.90;47.80;;;;;;5039458;28;20543;-67
2022/09/22 08:14:06;;;;;;;8.53;6.67;;;23.50;48.50;;;;;;5026257;28;20446;-67
2022/09/22 08:16:35;;;;;;;7.87;6.37;;;23.10;51.60;;;;;;5029946;28;20463;-67
2022/09/22 08:19:11;;;;;;;7.37;6.53;;;21.90;53.00;;;;;;5041573;28;20437;-66
2022/09/22 08:21:38;;;;;;;7.10;5.30;;;21.20;56.10;;;;;;5034565;28;20447;-66
2022/09/22 08:24:06;;;;;;;6.13;5.53;;;21.50;56.20;;;;;;5042058;28;20436;-65
2022/09/22 08:26:35;;;;;;;7.03;6.43;;;21.70;56.70;;;;;;5033426;28;20796;-68
2022/09/22 08:29:01;;;;;;;9.90;6.28;;;20.40;56.60;;;;;;5027150;28;20457;-67
2022/09/22 08:31:27;;;;;;;7.40;6.60;;;19.90;59.30;;;;;;5030615;28;20647;-66
2022/09/22 08:33:54;;;;;;;7.83;7.07;;;20.00;59.90;;;;;;5024319;28;20209;-66
2022/09/22 08:36:21;;;;;;;9.18;7.50;;;19.80;60.80;;;;;;5017735;28;20696;-66
2022/09/22 08:38:48;;;;;;;10.10;7.15;;;19.20;62.30;;;;;;5030551;28;20190;-66
2022/09/22 08:41:40;;;;;;;7.03;6.35;;;18.70;64.50;;;;;;5033386;28;20243;-65
2022/09/22 08:44:06;;;;;;;10.27;8.02;;;18.10;67.20;;;;;;5027525;28;20197;-60
2022/09/22 08:46:39;;;;;;;9.77;7.20;;;17.60;69.10;;;;;;5033193;28;20190;-66
2022/09/22 08:52:03;;;;;;;5.38;4.97;;;16.60;75.10;;;;;;5036226;28;20296;-59
2022/09/22 08:54:30;;;;;;;5.22;4.75;;;16.10;75.70;;;;;;5025443;28;20197;-61
2022/09/22 08:57:26;;;;;;;3.10;2.83;;;16.00;77.40;;;;;;5027030;28;20205;-60
2022/09/22 08:59:55;;;;;;;3.50;3.13;;;15.70;75.90;;;;;;5034675;28;20193;-59
2022/09/22 09:02:54;;;;;;;5.18;4.68;;;15.70;78.30;;;;;;5043777;28;20639;-59
2022/09/22 09:05:47;;;;;;;7.40;3.85;;;15.70;78.90;;;;;;5038251;28;20578;-59
2022/09/22 09:08:38;;;;;;;3.45;3.10;;;15.80;79.10;;;;;;5032645;28;20622;-60
2022/09/22 09:11:31;;;;;;;2.20;2.10;;;15.60;79.60;;;;;;5030722;28;20264;-57
2022/09/22 09:14:20;;;;;;;3.38;1.70;;;15.90;78.20;;;;;;5042943;28;20185;-57
2022/09/22 09:16:58;;;;;;;4.45;2.78;;;16.20;79.10;;;;;;5039232;28;20261;-57
2022/09/22 09:19:36;;;;;;;1.88;1.75;;;16.10;78.30;;;;;;5026566;28;20232;-57
2022/09/22 09:22:23;;;;;;;2.90;1.90;;;15.80;76.40;;;;;;5031712;28;20182;-57
2022/09/22 09:24:54;;;;;;;2.30;2.08;;;15.90;78.20;;;;;;5034017;28;20689;-57
2022/09/22 09:27:37;;;;;;;1.70;1.60;;;15.90;77.10;;;;;;5036406;28;20673;-57
2022/09/22 09:30:18;;;;;;;2.38;1.85;;;16.00;76.00;;;;;;5034107;28;20194;-57
2022/09/22 09:32:50;;;;;;;1.77;1.60;;;16.40;76.70;;;;;;5031750;28;20550;-58
2022/09/22 09:35:38;;;;;;;1.60;1.50;;;16.20;76.00;;;;;;5034279;28;20219;-58
2022/09/22 09:38:10;;;;;;;2.00;1.88;;;16.40;75.60;;;;;;5020889;28;20199;-56
2022/09/22 09:40:35;;;;;;;3.08;1.80;;;17.10;74.20;;;;;;5038689;28;20512;-57
2022/09/22 09:43:04;;;;;;;2.00;1.90;;;18.30;70.60;;;;;;5035294;28;20193;-57
2022/09/22 09:46:15;;;;;;;2.63;1.95;;;19.40;68.00;;;;;;5037153;28;20281;-58
2022/09/22 09:49:05;;;;;;;1.67;1.57;;;21.40;60.80;;;;;;5029460;28;20293;-56
2022/09/22 09:51:37;;;;;;;3.10;1.93;;;23.70;56.40;;;;;;5029920;28;20436;-57
2022/09/22 09:54:08;;;;;;;1.63;1.53;;;25.40;52.40;;;;;;5032452;28;20444;-57
2022/09/22 09:56:36;;;;;;;3.20;1.63;;;26.00;49.00;;;;;;5025812;28;20972;-58
2022/09/22 10:02:00;;;;;;;2.27;2.07;;;26.90;48.10;;;;;;5028548;28;20576;-66
2022/09/22 10:04:36;;;;;;;4.60;4.17;;;27.50;46.40;;;;;;5036031;28;20636;-65
2022/09/22 10:07:18;;;;;;;3.33;1.93;;;27.90;45.10;;;;;;5030916;28;20992;-64
2022/09/22 10:09:45;;;;;;;2.20;2.00;;;27.20;45.20;;;;;;5029967;28;20447;-64
2022/09/22 10:12:29;;;;;;;2.13;1.80;;;26.70;45.20;;;;;;5028663;28;20932;-62
2022/09/22 10:14:57;;;;;;;2.80;1.77;;;25.40;46.30;;;;;;5030527;28;20495;-65
2022/09/22 10:17:27;;;;;;;1.80;1.70;;;24.20;48.60;;;;;;5041205;28;20452;-64
2022/09/22 10:20:14;;;;;;;2.00;1.80;;;23.50;50.00;;;;;;5028152;28;21022;-62
2022/09/22 10:22:39;;;;;;;2.00;1.80;;;22.00;52.90;;;;;;5031746;28;20613;-62
2022/09/22 10:25:18;;;;;;;1.90;1.80;;;21.50;54.80;;;;;;5031742;28;21037;-62
2022/09/22 10:28:12;;;;;;;3.20;1.83;;;20.90;54.50;;;;;;5036716;28;20244;-62
2022/09/22 10:30:39;;;;;;;2.10;1.60;;;20.30;56.70;;;;;;5019928;28;20467;-62
2022/09/22 10:33:21;;;;;;;2.10;1.90;;;19.90;58.20;;;;;;5031231;28;20254;-62
2022/09/22 10:36:05;;;;;;;3.75;2.10;;;19.60;59.00;;;;;;5031138;28;20469;-62
2022/09/22 10:38:37;;;;;;;1.60;1.50;;;19.30;60.00;;;;;;5038834;28;20193;-63
2022/09/22 10:41:25;;;;;;;1.40;1.30;;;18.90;58.00;;;;;;5021963;28;20218;-62
2022/09/22 10:44:25;;;;;;;1.75;1.25;;;18.60;58.90;;;;;;5026302;28;20189;-62
2022/09/22 10:47:04;;;;;;;1.65;1.48;;;18.70;59.90;;;;;;5030004;28;20212;-62
2022/09/22 10:49:48;;;;;;;1.40;1.30;;;18.40;60.80;;;;;;5029691;28;20193;-62
2022/09/22 10:52:41;;;;;;;1.48;1.30;;;18.40;60.60;;;;;;5023929;28;20240;-61
2022/09/22 10:55:13;;;;;;;2.28;1.80;;;18.30;60.20;;;;;;5026179;28;20229;-60
2022/09/22 10:57:53;;;;;;;1.88;1.45;;;18.70;60.00;;;;;;5040082;28;20796;-61
2022/09/22 11:00:20;;;;;;;1.50;1.40;;;19.40;59.80;;;;;;5029707;28;20690;-62
2022/09/22 11:03:01;;;;;;;1.85;1.30;;;19.90;57.70;;;;;;5030446;28;20289;-59
2022/09/22 11:12:37;;;;;;;1.38;1.27;;;19.20;58.60;;;;;;5013083;28;20886;-60
2022/09/22 11:15:34;;;;;;;1.40;1.30;;;18.90;57.50;;;;;;4987087;28;20210;-61
2022/09/22 11:18:19;;;;;;;1.60;1.30;;;18.60;57.50;;;;;;4988358;28;20207;-61
2022/09/22 11:20:55;;;;;;;1.45;1.35;;;18.80;58.20;;;;;;5031460;28;20273;-62
2022/09/22 11:23:30;;;;;;;1.27;1.17;;;18.70;59.00;;;;;;5025056;28;20182;-61
2022/09/22 11:26:14;;;;;;;1.58;1.40;;;18.60;59.00;;;;;;5030145;28;20208;-61
2022/09/22 11:29:14;;;;;;;1.55;1.45;;;18.30;58.70;;;;;;5024796;28;20275;-62
2022/09/22 11:32:12;;;;;;;2.05;1.30;;;18.30;60.20;;;;;;5029177;28;20186;-63
2022/09/22 11:34:52;;;;;;;2.30;1.30;;;18.40;59.80;;;;;;5021101;28;20264;-63
2022/09/22 11:37:51;;;;;;;2.15;1.08;;;18.30;59.60;;;;;;5047999;28;20650;-61
2022/09/22 11:40:43;;;;;;;1.50;1.40;;;18.40;60.40;;;;;;5031854;28;20188;-60
2022/09/22 11:43:25;;;;;;;1.42;1.33;;;18.30;59.90;;;;;;5011392;28;20216;-62
2022/09/22 11:46:14;;;;;;;2.05;1.17;;;18.40;61.90;;;;;;5032028;28;20761;-61
2022/09/22 11:48:49;;;;;;;1.50;1.40;;;18.40;61.40;;;;;;5028231;28;20232;-60
2022/09/22 11:51:23;;;;;;;1.40;1.30;;;18.40;58.40;;;;;;5027652;28;20261;-61
2022/09/22 11:53:58;;;;;;;1.40;1.30;;;18.60;57.40;;;;;;5026597;28;20186;-64
2022/09/22 11:56:33;;;;;;;1.70;1.45;;;18.70;57.20;;;;;;5024143;28;20558;-63
2022/09/22 11:59:05;;;;;;;2.15;1.45;;;18.70;58.50;;;;;;5019080;28;20193;-62
2022/09/22 12:01:36;;;;;;;1.35;1.25;;;18.80;58.80;;;;;;5029397;28;20192;-62
2022/09/22 12:04:32;;;;;;;1.40;1.30;;;18.70;58.10;;;;;;5020739;28;20239;-63
2022/09/22 12:06:58;;;;;;;3.38;1.50;;;18.90;59.50;;;;;;5026985;28;20837;-63
2022/09/22 12:09:39;;;;;;;2.10;1.50;;;18.80;59.10;;;;;;5025752;28;20344;-63
2022/09/22 12:12:09;;;;;;;2.15;1.60;;;18.90;59.00;;;;;;5030510;28;20188;-61
2022/09/22 12:14:35;;;;;;;1.33;1.23;;;18.90;57.60;;;;;;5037959;28;20209;-71
2022/09/22 12:17:11;;;;;;;1.40;1.30;;;18.80;58.10;;;;;;5028470;28;20189;-66
2022/09/22 12:19:57;;;;;;;1.73;1.63;;;18.80;57.70;;;;;;5038227;28;20189;-61
2022/09/22 12:22:58;;;;;;;1.60;1.50;;;19.80;58.80;;;;;;5039331;28;20610;-61
2022/09/22 12:25:42;;;;;;;1.60;1.40;;;19.20;58.70;;;;;;4999256;28;20218;-65
2022/09/22 12:28:14;;;;;;;1.10;1.00;;;18.80;57.30;;;;;;5029260;28;20563;-70
2022/09/22 12:31:11;;;;;;;2.30;1.25;;;18.90;57.40;;;;;;5029239;28;20186;-69
2022/09/22 12:33:45;;;;;;;1.30;1.20;;;18.80;56.70;;;;;;5032885;28;20559;-69
2022/09/22 12:36:11;;;;;;;1.35;1.25;;;18.80;56.40;;;;;;5034113;28;20544;-67
2022/09/22 12:38:37;;;;;;;2.55;1.50;;;18.50;56.40;;;;;;5031603;28;20190;-67
2022/09/22 12:41:04;;;;;;;1.50;1.20;;;18.50;56.20;;;;;;5034590;28;20729;-67
2022/09/22 12:43:32;;;;;;;1.27;1.17;;;18.80;57.10;;;;;;5021671;28;20205;-69
2022/09/22 12:46:04;;;;;;;1.40;1.30;;;18.60;55.60;;;;;;5032486;28;20205;-72
2022/09/22 12:48:34;;;;;;;1.60;1.50;;;18.60;56.30;;;;;;5031676;28;20226;-63
2022/09/22 12:51:26;;;;;;;1.67;1.42;;;18.70;56.50;;;;;;5033770;28;20174;-61
2022/09/22 12:54:21;;;;;;;1.17;1.00;;;18.70;57.40;;;;;;5037727;28;20188;-60
2022/09/22 12:56:58;;;;;;;1.40;1.30;;;18.80;56.50;;;;;;5035464;28;20263;-60
2022/09/22 12:59:38;;;;;;;1.80;1.20;;;18.70;54.70;;;;;;5039074;28;20274;-61
2022/09/22 13:02:12;;;;;;;1.10;1.00;;;18.60;55.10;;;;;;5033499;28;20193;-61
2022/09/22 13:04:38;;;;;;;1.15;1.05;;;19.00;56.30;;;;;;5031869;28;20296;-60
2022/09/22 13:07:37;;;;;;;1.58;1.10;;;18.60;55.40;;;;;;5028052;28;20198;-63
2022/09/22 13:10:21;;;;;;;1.60;1.50;;;18.70;55.10;;;;;;5031157;28;20182;-62
2022/09/22 13:15:44;;;;;;;1.83;1.25;;;18.60;55.80;;;;;;5042038;28;20213;-61
2022/09/22 13:18:36;;;;;;;1.52;1.42;;;18.40;55.10;;;;;;5030144;28;20284;-60
2022/09/22 13:21:13;;;;;;;1.45;1.13;;;18.30;55.20;;;;;;5034006;28;20291;-60
2022/09/22 13:23:54;;;;;;;1.70;1.08;;;18.20;55.50;;;;;;5032533;28;20534;-59
2022/09/22 13:26:29;;;;;;;1.80;1.20;;;18.30;55.90;;;;;;5026145;28;20197;-57
2022/09/22 13:29:16;;;;;;;2.63;2.03;;;18.30;56.10;;;;;;5033523;28;20916;-58
2022/09/22 13:31:46;;;;;;;1.38;1.27;;;18.40;56.30;;;;;;5030057;28;20205;-66
2022/09/22 13:34:24;;;;;;;2.03;1.10;;;18.40;57.10;;;;;;5018795;28;20211;-66
2022/09/22 13:37:03;;;;;;;1.40;1.30;;;18.50;55.40;;;;;;5033401;28;20187;-66
2022/09/22 13:39:41;;;;;;;1.50;1.40;;;18.40;55.90;;;;;;5034645;28;20194;-63
2022/09/22 13:42:23;;;;;;;1.80;1.20;;;18.40;55.40;;;;;;5027397;28;20644;-62